Create Tblcommutelog Verified Points Advance Search
| # | Trip ID | Id Commuter | Trip Date | Trip Num | Current Lat | Current Lng | Delta Distance | Current Time | Activity | Activity Confidence | Current Speed | |
|---|---|---|---|---|---|---|---|---|---|---|---|---|
| 69201 | 250813_785799_6452825_0707 | 785799 | (not set) | (not set) | 38.968768805661 | -76.934428652611 | 1.6632 | 2025-08-13 07:17:52 | in_vehicle | 100 | 2.0250878432144 | |
| 69202 | 250813_781150_16462356_0656 | 781150 | (not set) | (not set) | 38.924696929258 | -77.210976962397 | 10.3062 | 2025-08-13 07:18:02 | still | 33 | 0 | |
| 69203 | 250813_763853_16464864_0634 | 763853 | (not set) | (not set) | 38.958376351393 | -77.408835715956 | 16.4717 | 2025-08-13 07:18:14 | in_vehicle | 100 | 10.161202356791 | |
| 69204 | 250813_783029_6431355_0651 | 783029 | (not set) | (not set) | 38.8784731879 | -77.034595778645 | 6.8161 | 2025-08-13 07:18:22 | still | 33 | -0.44703925898772 | |
| 69205 | 250813_786996_16514883_0652 | 786996 | (not set) | (not set) | 38.887173 | -77.0556931 | 2.0328 | 2025-08-13 07:01:10 | on_bicycle | 100 | 4.0591164716085 | |
| 69206 | 250813_781336_16450333_0704 | 781336 | (not set) | (not set) | 38.957039373963 | -77.40494778387 | 7.4848 | 2025-08-13 07:18:31 | in_vehicle | 100 | 12.204171770365 | |
| 69207 | 250813_781336_16450333_0704 | 781336 | (not set) | (not set) | 38.955903793721 | -77.401756206599 | 7.6737 | 2025-08-13 07:18:42 | in_vehicle | 100 | 12.485806503527 | |
| 69208 | 250813_113832_16457490_0622 | 113832 | (not set) | (not set) | 38.905934130994 | -77.043515732313 | 19.393 | 2025-08-13 07:18:54 | on_foot | 100 | 0.42468729603834 | |
| 69209 | 250813_763853_16464864_0634 | 763853 | (not set) | (not set) | 38.954103356967 | -77.394464529653 | 17.3023 | 2025-08-13 07:19:04 | in_vehicle | 100 | 10.246139815999 | |
| 69210 | 250813_786248_16514534_0715 | 786248 | (not set) | (not set) | 39.128542216667 | -76.588292583333 | 0.5435 | 2025-08-13 07:19:14 | in_vehicle | 100 | 3.1739787388128 | |
| 69211 | 250813_784389_6428266_0701 | 784389 | (not set) | (not set) | 38.988611881717 | -77.453985306943 | 9.3644 | 2025-08-13 07:19:23 | in_vehicle | 100 | 1.8820352803383 | |
| 69212 | 250813_784389_6428266_0701 | 784389 | (not set) | (not set) | 38.987965183282 | -77.453087604398 | 9.4302 | 2025-08-13 07:19:34 | in_vehicle | 100 | 6.665355351507 | |
| 69213 | 250813_785777_16506513_0643 | 785777 | (not set) | (not set) | 39.288159114029 | -76.548608587384 | 6.2782 | 2025-08-13 07:19:42 | in_vehicle | 100 | 1.9088576358776 | |
| 69214 | 250813_772512_16490104_0706 | 772512 | (not set) | (not set) | 39.234428072961 | -76.691633613563 | 0.1721 | 2025-08-13 07:19:53 | unknown | 100 | 3.6478403533398 | |
| 69215 | 250813_784923_16478950_0635 | 784923 | (not set) | (not set) | 38.81024932985 | -76.909495523748 | 18.3027 | 2025-08-13 07:20:00 | unknown | 100 | 10.451777875133 | |
| 69216 | 250813_787311_16430940_0702 | 787311 | (not set) | (not set) | 39.563151435435 | -76.056156769845 | 30.8813 | 2025-08-13 07:20:07 | unknown | 100 | 18.543188462811 | |
| 69217 | 250813_784608_16458763_0720 | 784608 | (not set) | (not set) | 38.715419783293 | -77.21359446652 | 0 | 2025-08-13 07:20:13 | unknown | 100 | 0 | |
| 69218 | 250813_786248_16514534_0715 | 786248 | (not set) | (not set) | 39.1292987 | -76.5924427 | 0.8336 | 2025-08-13 07:20:22 | in_vehicle | 100 | 11.29221168203 | |
| 69219 | 250813_775427_16511726_0717 | 775427 | (not set) | (not set) | 38.9645794 | -76.9555306 | 0.1248 | 2025-08-13 07:20:34 | walking | 100 | 0.62585496258281 | |
| 69220 | 250813_784389_6428266_0701 | 784389 | (not set) | (not set) | 38.981167104081 | -77.446121823526 | 10.0307 | 2025-08-13 07:20:40 | in_vehicle | 100 | 5.5388164188579 |